sensor_id;sensor_type;location;lat;lon;timestamp;P1;durP1;ratioP1;P2;durP2;ratioP2
76256;SDS011;65074;50.436;8.672;2023-02-21T00:00:23;31.55;;;11.95;;
76256;SDS011;65074;50.436;8.672;2023-02-21T00:03:07;29.55;;;12.23;;
76256;SDS011;65074;50.436;8.672;2023-02-21T00:05:50;23.83;;;9.75;;
76256;SDS011;65074;50.436;8.672;2023-02-21T00:08:34;25.92;;;11.02;;
76256;SDS011;65074;50.436;8.672;2023-02-21T00:11:18;26.38;;;12.25;;
76256;SDS011;65074;50.436;8.672;2023-02-21T00:14:02;30.48;;;12.82;;
76256;SDS011;65074;50.436;8.672;2023-02-21T00:16:45;31.10;;;12.15;;
76256;SDS011;65074;50.436;8.672;2023-02-21T00:19:29;26.48;;;12.32;;
76256;SDS011;65074;50.436;8.672;2023-02-21T00:22:13;28.92;;;11.45;;
76256;SDS011;65074;50.436;8.672;2023-02-21T00:24:57;27.23;;;12.25;;
76256;SDS011;65074;50.436;8.672;2023-02-21T00:27:41;26.67;;;11.68;;
76256;SDS011;65074;50.436;8.672;2023-02-21T00:30:24;31.67;;;12.23;;
76256;SDS011;65074;50.436;8.672;2023-02-21T00:33:08;32.33;;;13.85;;
76256;SDS011;65074;50.436;8.672;2023-02-21T00:35:52;28.67;;;12.55;;
76256;SDS011;65074;50.436;8.672;2023-02-21T00:38:36;31.08;;;14.15;;
76256;SDS011;65074;50.436;8.672;2023-02-21T00:41:21;29.88;;;12.77;;
76256;SDS011;65074;50.436;8.672;2023-02-21T00:44:05;29.20;;;12.50;;
76256;SDS011;65074;50.436;8.672;2023-02-21T00:46:48;27.52;;;13.18;;
76256;SDS011;65074;50.436;8.672;2023-02-21T00:49:32;36.25;;;13.65;;
76256;SDS011;65074;50.436;8.672;2023-02-21T00:52:16;29.10;;;12.35;;
76256;SDS011;65074;50.436;8.672;2023-02-21T00:55:00;26.50;;;13.18;;
76256;SDS011;65074;50.436;8.672;2023-02-21T00:57:44;27.65;;;12.10;;
76256;SDS011;65074;50.436;8.672;2023-02-21T01:00:28;27.67;;;12.65;;
76256;SDS011;65074;50.436;8.672;2023-02-21T01:03:12;29.45;;;11.38;;
76256;SDS011;65074;50.436;8.672;2023-02-21T01:05:55;31.98;;;13.38;;
76256;SDS011;65074;50.436;8.672;2023-02-21T01:08:40;27.55;;;12.50;;
76256;SDS011;65074;50.436;8.672;2023-02-21T01:11:29;30.10;;;12.95;;
76256;SDS011;65074;50.436;8.672;2023-02-21T01:14:14;28.70;;;12.88;;
76256;SDS011;65074;50.436;8.672;2023-02-21T01:16:58;29.70;;;12.60;;
76256;SDS011;65074;50.436;8.672;2023-02-21T01:19:42;30.83;;;13.85;;
76256;SDS011;65074;50.436;8.672;2023-02-21T01:22:27;28.70;;;11.85;;
76256;SDS011;65074;50.436;8.672;2023-02-21T01:25:12;27.52;;;13.13;;
76256;SDS011;65074;50.436;8.672;2023-02-21T01:27:57;31.50;;;13.27;;
76256;SDS011;65074;50.436;8.672;2023-02-21T01:30:41;29.95;;;13.00;;
76256;SDS011;65074;50.436;8.672;2023-02-21T01:33:25;30.50;;;12.95;;
76256;SDS011;65074;50.436;8.672;2023-02-21T01:36:10;25.65;;;10.80;;
76256;SDS011;65074;50.436;8.672;2023-02-21T01:38:54;29.20;;;12.27;;
76256;SDS011;65074;50.436;8.672;2023-02-21T01:41:38;26.55;;;12.23;;
76256;SDS011;65074;50.436;8.672;2023-02-21T01:47:21;28.90;;;11.65;;
76256;SDS011;65074;50.436;8.672;2023-02-21T01:50:17;26.88;;;11.85;;
76256;SDS011;65074;50.436;8.672;2023-02-21T01:53:09;28.67;;;11.63;;
76256;SDS011;65074;50.436;8.672;2023-02-21T01:56:08;25.38;;;10.85;;
76256;SDS011;65074;50.436;8.672;2023-02-21T01:58:54;29.58;;;12.68;;
76256;SDS011;65074;50.436;8.672;2023-02-21T02:02:02;31.13;;;11.80;;
76256;SDS011;65074;50.436;8.672;2023-02-21T02:04:52;29.63;;;12.07;;
76256;SDS011;65074;50.436;8.672;2023-02-21T02:07:38;29.42;;;12.85;;
76256;SDS011;65074;50.436;8.672;2023-02-21T02:10:23;26.08;;;11.88;;
76256;SDS011;65074;50.436;8.672;2023-02-21T02:15:51;29.40;;;13.00;;
76256;SDS011;65074;50.436;8.672;2023-02-21T02:21:49;25.98;;;11.52;;
76256;SDS011;65074;50.436;8.672;2023-02-21T02:27:28;25.55;;;11.98;;
76256;SDS011;65074;50.436;8.672;2023-02-21T02:33:18;27.92;;;11.35;;
76256;SDS011;65074;50.436;8.672;2023-02-21T02:38:36;30.85;;;12.23;;
76256;SDS011;65074;50.436;8.672;2023-02-21T02:44:18;29.45;;;11.25;;
76256;SDS011;65074;50.436;8.672;2023-02-21T02:46:50;27.88;;;10.77;;
76256;SDS011;65074;50.436;8.672;2023-02-21T02:49:22;24.40;;;10.77;;
76256;SDS011;65074;50.436;8.672;2023-02-21T02:51:51;26.08;;;11.68;;
76256;SDS011;65074;50.436;8.672;2023-02-21T02:54:20;27.77;;;11.82;;
76256;SDS011;65074;50.436;8.672;2023-02-21T02:56:45;23.63;;;10.13;;
76256;SDS011;65074;50.436;8.672;2023-02-21T02:59:13;27.83;;;11.43;;
76256;SDS011;65074;50.436;8.672;2023-02-21T03:13:11;31.45;;;12.60;;
76256;SDS011;65074;50.436;8.672;2023-02-21T03:15:54;28.73;;;11.32;;
76256;SDS011;65074;50.436;8.672;2023-02-21T03:18:30;31.70;;;12.02;;
76256;SDS011;65074;50.436;8.672;2023-02-21T03:21:09;28.02;;;10.90;;
76256;SDS011;65074;50.436;8.672;2023-02-21T03:23:38;23.27;;;10.18;;
76256;SDS011;65074;50.436;8.672;2023-02-21T03:26:08;24.75;;;10.85;;
76256;SDS011;65074;50.436;8.672;2023-02-21T03:28:39;28.75;;;11.82;;
76256;SDS011;65074;50.436;8.672;2023-02-21T03:31:06;27.20;;;11.55;;
76256;SDS011;65074;50.436;8.672;2023-02-21T03:33:34;27.95;;;10.95;;
76256;SDS011;65074;50.436;8.672;2023-02-21T03:36:02;29.67;;;10.93;;
76256;SDS011;65074;50.436;8.672;2023-02-21T03:38:29;27.70;;;11.35;;
76256;SDS011;65074;50.436;8.672;2023-02-21T03:40:56;24.23;;;10.75;;
76256;SDS011;65074;50.436;8.672;2023-02-21T03:43:22;25.80;;;11.32;;
76256;SDS011;65074;50.436;8.672;2023-02-21T03:45:52;21.05;;;9.73;;
76256;SDS011;65074;50.436;8.672;2023-02-21T03:48:18;25.83;;;11.02;;
76256;SDS011;65074;50.436;8.672;2023-02-21T03:50:43;25.40;;;11.38;;
76256;SDS011;65074;50.436;8.672;2023-02-21T03:53:09;28.10;;;10.73;;
76256;SDS011;65074;50.436;8.672;2023-02-21T03:55:36;27.30;;;11.30;;
76256;SDS011;65074;50.436;8.672;2023-02-21T04:02:59;22.20;;;9.17;;
76256;SDS011;65074;50.436;8.672;2023-02-21T04:05:37;26.75;;;11.23;;
76256;SDS011;65074;50.436;8.672;2023-02-21T04:08:03;28.05;;;10.15;;
76256;SDS011;65074;50.436;8.672;2023-02-21T04:10:29;27.00;;;11.15;;
76256;SDS011;65074;50.436;8.672;2023-02-21T04:12:55;24.95;;;10.13;;
76256;SDS011;65074;50.436;8.672;2023-02-21T04:15:20;23.65;;;9.60;;
76256;SDS011;65074;50.436;8.672;2023-02-21T04:17:46;24.58;;;9.80;;
76256;SDS011;65074;50.436;8.672;2023-02-21T04:20:13;21.63;;;8.77;;
76256;SDS011;65074;50.436;8.672;2023-02-21T04:22:44;20.25;;;9.43;;
76256;SDS011;65074;50.436;8.672;2023-02-21T04:25:09;21.83;;;8.98;;
76256;SDS011;65074;50.436;8.672;2023-02-21T04:27:40;23.35;;;8.80;;
76256;SDS011;65074;50.436;8.672;2023-02-21T04:30:06;21.00;;;9.15;;
76256;SDS011;65074;50.436;8.672;2023-02-21T04:32:32;23.27;;;10.15;;
76256;SDS011;65074;50.436;8.672;2023-02-21T04:35:01;24.38;;;9.38;;
76256;SDS011;65074;50.436;8.672;2023-02-21T04:37:27;22.60;;;9.15;;
76256;SDS011;65074;50.436;8.672;2023-02-21T04:39:52;23.38;;;10.15;;
76256;SDS011;65074;50.436;8.672;2023-02-21T04:42:18;23.65;;;10.63;;
76256;SDS011;65074;50.436;8.672;2023-02-21T04:44:43;22.95;;;9.55;;
76256;SDS011;65074;50.436;8.672;2023-02-21T04:47:09;25.52;;;11.32;;
76256;SDS011;65074;50.436;8.672;2023-02-21T04:49:34;24.23;;;10.10;;
76256;SDS011;65074;50.436;8.672;2023-02-21T04:52:00;22.42;;;9.43;;
76256;SDS011;65074;50.436;8.672;2023-02-21T04:54:25;23.48;;;10.13;;
76256;SDS011;65074;50.436;8.672;2023-02-21T04:56:50;20.38;;;8.43;;
76256;SDS011;65074;50.436;8.672;2023-02-21T04:59:16;20.15;;;8.65;;
76256;SDS011;65074;50.436;8.672;2023-02-21T05:01:41;20.08;;;8.60;;
76256;SDS011;65074;50.436;8.672;2023-02-21T05:04:06;23.13;;;8.82;;
76256;SDS011;65074;50.436;8.672;2023-02-21T05:06:32;24.13;;;8.45;;
76256;SDS011;65074;50.436;8.672;2023-02-21T05:08:58;21.05;;;8.98;;
76256;SDS011;65074;50.436;8.672;2023-02-21T05:11:24;22.85;;;9.27;;
76256;SDS011;65074;50.436;8.672;2023-02-21T05:13:50;22.45;;;9.43;;
76256;SDS011;65074;50.436;8.672;2023-02-21T05:16:17;18.55;;;8.23;;
76256;SDS011;65074;50.436;8.672;2023-02-21T05:18:43;22.40;;;10.10;;
76256;SDS011;65074;50.436;8.672;2023-02-21T05:21:10;21.92;;;8.43;;
76256;SDS011;65074;50.436;8.672;2023-02-21T05:23:38;19.05;;;8.35;;
76256;SDS011;65074;50.436;8.672;2023-02-21T05:26:08;18.23;;;8.07;;
76256;SDS011;65074;50.436;8.672;2023-02-21T05:28:36;20.48;;;8.20;;
76256;SDS011;65074;50.436;8.672;2023-02-21T05:31:01;23.02;;;8.57;;
76256;SDS011;65074;50.436;8.672;2023-02-21T05:33:27;17.38;;;8.20;;
76256;SDS011;65074;50.436;8.672;2023-02-21T05:35:52;16.73;;;8.50;;
76256;SDS011;65074;50.436;8.672;2023-02-21T05:38:19;20.27;;;8.60;;
76256;SDS011;65074;50.436;8.672;2023-02-21T05:40:45;20.55;;;8.77;;
76256;SDS011;65074;50.436;8.672;2023-02-21T05:43:11;22.38;;;10.20;;
76256;SDS011;65074;50.436;8.672;2023-02-21T05:45:36;25.48;;;9.48;;
76256;SDS011;65074;50.436;8.672;2023-02-21T05:48:02;26.33;;;9.77;;
76256;SDS011;65074;50.436;8.672;2023-02-21T05:50:28;20.52;;;9.80;;
76256;SDS011;65074;50.436;8.672;2023-02-21T05:52:54;19.52;;;9.18;;
76256;SDS011;65074;50.436;8.672;2023-02-21T05:55:20;20.63;;;8.10;;
76256;SDS011;65074;50.436;8.672;2023-02-21T05:57:46;21.00;;;9.45;;
76256;SDS011;65074;50.436;8.672;2023-02-21T06:00:18;21.77;;;8.88;;
76256;SDS011;65074;50.436;8.672;2023-02-21T06:02:48;19.92;;;7.90;;
76256;SDS011;65074;50.436;8.672;2023-02-21T06:05:14;22.05;;;9.30;;
76256;SDS011;65074;50.436;8.672;2023-02-21T06:07:41;17.67;;;9.13;;
76256;SDS011;65074;50.436;8.672;2023-02-21T06:10:07;23.27;;;9.73;;
76256;SDS011;65074;50.436;8.672;2023-02-21T06:12:33;21.75;;;9.57;;
76256;SDS011;65074;50.436;8.672;2023-02-21T06:14:58;20.45;;;7.75;;
76256;SDS011;65074;50.436;8.672;2023-02-21T06:17:24;19.23;;;9.27;;
76256;SDS011;65074;50.436;8.672;2023-02-21T06:19:49;20.65;;;8.38;;
76256;SDS011;65074;50.436;8.672;2023-02-21T06:22:15;20.63;;;8.25;;
76256;SDS011;65074;50.436;8.672;2023-02-21T06:24:41;22.02;;;9.02;;
76256;SDS011;65074;50.436;8.672;2023-02-21T06:27:06;19.75;;;8.45;;
76256;SDS011;65074;50.436;8.672;2023-02-21T06:29:31;17.90;;;8.63;;
76256;SDS011;65074;50.436;8.672;2023-02-21T06:32:00;19.75;;;8.55;;
76256;SDS011;65074;50.436;8.672;2023-02-21T06:34:26;21.02;;;8.63;;
76256;SDS011;65074;50.436;8.672;2023-02-21T06:36:53;22.50;;;9.50;;
76256;SDS011;65074;50.436;8.672;2023-02-21T06:39:19;21.00;;;9.02;;
76256;SDS011;65074;50.436;8.672;2023-02-21T06:41:45;21.63;;;8.88;;
76256;SDS011;65074;50.436;8.672;2023-02-21T06:44:10;15.95;;;8.27;;
76256;SDS011;65074;50.436;8.672;2023-02-21T06:46:36;24.92;;;8.02;;
76256;SDS011;65074;50.436;8.672;2023-02-21T06:49:02;20.27;;;8.43;;
76256;SDS011;65074;50.436;8.672;2023-02-21T06:51:32;19.63;;;8.52;;
76256;SDS011;65074;50.436;8.672;2023-02-21T06:54:02;23.73;;;9.43;;
76256;SDS011;65074;50.436;8.672;2023-02-21T06:56:28;23.85;;;8.63;;
76256;SDS011;65074;50.436;8.672;2023-02-21T06:58:54;18.02;;;7.55;;
76256;SDS011;65074;50.436;8.672;2023-02-21T07:01:21;20.05;;;9.13;;
76256;SDS011;65074;50.436;8.672;2023-02-21T07:03:49;23.63;;;9.32;;
76256;SDS011;65074;50.436;8.672;2023-02-21T07:06:15;19.77;;;8.55;;
76256;SDS011;65074;50.436;8.672;2023-02-21T07:08:40;19.30;;;8.95;;
76256;SDS011;65074;50.436;8.672;2023-02-21T07:11:06;17.52;;;7.90;;
76256;SDS011;65074;50.436;8.672;2023-02-21T07:13:32;23.67;;;8.40;;
76256;SDS011;65074;50.436;8.672;2023-02-21T07:15:57;18.05;;;7.85;;
76256;SDS011;65074;50.436;8.672;2023-02-21T07:18:23;20.40;;;8.40;;
76256;SDS011;65074;50.436;8.672;2023-02-21T07:20:48;17.33;;;8.15;;
76256;SDS011;65074;50.436;8.672;2023-02-21T07:23:14;19.35;;;8.02;;
76256;SDS011;65074;50.436;8.672;2023-02-21T07:25:39;22.00;;;8.30;;
76256;SDS011;65074;50.436;8.672;2023-02-21T07:28:05;22.40;;;9.50;;
76256;SDS011;65074;50.436;8.672;2023-02-21T07:30:30;21.95;;;9.57;;
76256;SDS011;65074;50.436;8.672;2023-02-21T07:32:56;20.95;;;9.07;;
76256;SDS011;65074;50.436;8.672;2023-02-21T07:35:22;22.67;;;10.35;;
76256;SDS011;65074;50.436;8.672;2023-02-21T07:37:47;24.63;;;10.30;;
76256;SDS011;65074;50.436;8.672;2023-02-21T07:40:13;19.27;;;9.43;;
76256;SDS011;65074;50.436;8.672;2023-02-21T07:42:41;22.30;;;10.60;;
76256;SDS011;65074;50.436;8.672;2023-02-21T07:45:12;18.73;;;8.70;;
76256;SDS011;65074;50.436;8.672;2023-02-21T07:47:38;19.63;;;9.38;;
76256;SDS011;65074;50.436;8.672;2023-02-21T07:50:04;21.33;;;9.07;;
76256;SDS011;65074;50.436;8.672;2023-02-21T07:52:30;20.48;;;9.85;;
76256;SDS011;65074;50.436;8.672;2023-02-21T07:54:55;21.83;;;8.60;;
76256;SDS011;65074;50.436;8.672;2023-02-21T07:57:21;20.35;;;9.02;;
76256;SDS011;65074;50.436;8.672;2023-02-21T07:59:46;21.90;;;9.90;;
76256;SDS011;65074;50.436;8.672;2023-02-21T08:02:12;23.80;;;9.68;;
76256;SDS011;65074;50.436;8.672;2023-02-21T08:04:38;18.20;;;7.85;;
76256;SDS011;65074;50.436;8.672;2023-02-21T08:07:04;15.65;;;8.30;;
76256;SDS011;65074;50.436;8.672;2023-02-21T08:09:30;18.73;;;6.93;;
76256;SDS011;65074;50.436;8.672;2023-02-21T08:11:56;15.13;;;7.10;;
76256;SDS011;65074;50.436;8.672;2023-02-21T08:14:21;18.63;;;7.80;;
76256;SDS011;65074;50.436;8.672;2023-02-21T08:16:47;21.38;;;9.05;;
76256;SDS011;65074;50.436;8.672;2023-02-21T08:19:12;15.93;;;8.40;;
76256;SDS011;65074;50.436;8.672;2023-02-21T08:21:37;18.67;;;7.72;;
76256;SDS011;65074;50.436;8.672;2023-02-21T08:24:03;17.30;;;8.43;;
76256;SDS011;65074;50.436;8.672;2023-02-21T08:26:28;18.23;;;8.25;;
76256;SDS011;65074;50.436;8.672;2023-02-21T08:28:54;16.92;;;8.50;;
76256;SDS011;65074;50.436;8.672;2023-02-21T08:31:19;16.75;;;7.65;;
76256;SDS011;65074;50.436;8.672;2023-02-21T08:33:45;19.85;;;7.97;;
76256;SDS011;65074;50.436;8.672;2023-02-21T08:36:10;20.13;;;9.00;;
76256;SDS011;65074;50.436;8.672;2023-02-21T08:38:36;21.02;;;8.73;;
76256;SDS011;65074;50.436;8.672;2023-02-21T08:41:02;19.13;;;8.82;;
76256;SDS011;65074;50.436;8.672;2023-02-21T08:43:30;19.15;;;8.73;;
76256;SDS011;65074;50.436;8.672;2023-02-21T08:45:55;23.30;;;9.38;;
76256;SDS011;65074;50.436;8.672;2023-02-21T08:48:21;23.00;;;9.32;;
76256;SDS011;65074;50.436;8.672;2023-02-21T08:50:46;20.80;;;7.93;;
76256;SDS011;65074;50.436;8.672;2023-02-21T08:53:12;16.90;;;8.35;;
76256;SDS011;65074;50.436;8.672;2023-02-21T08:55:38;17.38;;;7.93;;
76256;SDS011;65074;50.436;8.672;2023-02-21T08:58:04;18.85;;;9.43;;
76256;SDS011;65074;50.436;8.672;2023-02-21T09:00:30;17.75;;;8.23;;
76256;SDS011;65074;50.436;8.672;2023-02-21T09:02:56;19.95;;;8.45;;
76256;SDS011;65074;50.436;8.672;2023-02-21T09:05:25;16.90;;;9.00;;
76256;SDS011;65074;50.436;8.672;2023-02-21T09:07:52;17.13;;;8.73;;
76256;SDS011;65074;50.436;8.672;2023-02-21T09:10:22;19.92;;;8.68;;
76256;SDS011;65074;50.436;8.672;2023-02-21T09:12:49;18.55;;;8.48;;
76256;SDS011;65074;50.436;8.672;2023-02-21T09:15:15;18.45;;;8.63;;
76256;SDS011;65074;50.436;8.672;2023-02-21T09:17:41;16.50;;;7.85;;
76256;SDS011;65074;50.436;8.672;2023-02-21T09:20:06;17.80;;;8.07;;
76256;SDS011;65074;50.436;8.672;2023-02-21T09:22:36;15.00;;;6.95;;
76256;SDS011;65074;50.436;8.672;2023-02-21T09:25:02;17.92;;;7.90;;
76256;SDS011;65074;50.436;8.672;2023-02-21T09:27:28;15.88;;;7.35;;
76256;SDS011;65074;50.436;8.672;2023-02-21T09:30:05;14.88;;;7.10;;
76256;SDS011;65074;50.436;8.672;2023-02-21T09:32:36;16.17;;;7.40;;
76256;SDS011;65074;50.436;8.672;2023-02-21T09:35:03;19.02;;;7.18;;
76256;SDS011;65074;50.436;8.672;2023-02-21T09:37:29;14.93;;;7.25;;
76256;SDS011;65074;50.436;8.672;2023-02-21T09:39:54;15.48;;;7.55;;
76256;SDS011;65074;50.436;8.672;2023-02-21T09:42:21;16.83;;;7.30;;
76256;SDS011;65074;50.436;8.672;2023-02-21T09:44:51;16.30;;;7.25;;
76256;SDS011;65074;50.436;8.672;2023-02-21T09:47:21;17.45;;;7.97;;
76256;SDS011;65074;50.436;8.672;2023-02-21T09:50:03;17.38;;;8.55;;
76256;SDS011;65074;50.436;8.672;2023-02-21T09:52:37;16.95;;;8.57;;
76256;SDS011;65074;50.436;8.672;2023-02-21T10:00:20;16.65;;;7.10;;
76256;SDS011;65074;50.436;8.672;2023-02-21T10:02:53;14.93;;;8.50;;
76256;SDS011;65074;50.436;8.672;2023-02-21T10:05:32;16.60;;;8.75;;
76256;SDS011;65074;50.436;8.672;2023-02-21T10:08:11;14.38;;;7.13;;
76256;SDS011;65074;50.436;8.672;2023-02-21T10:11:00;14.98;;;7.53;;
76256;SDS011;65074;50.436;8.672;2023-02-21T10:16:11;20.42;;;9.77;;
76256;SDS011;65074;50.436;8.672;2023-02-21T10:18:55;25.02;;;10.35;;
76256;SDS011;65074;50.436;8.672;2023-02-21T10:21:48;20.02;;;9.85;;
76256;SDS011;65074;50.436;8.672;2023-02-21T10:24:19;18.80;;;9.18;;
76256;SDS011;65074;50.436;8.672;2023-02-21T10:29:39;25.70;;;11.45;;
76256;SDS011;65074;50.436;8.672;2023-02-21T10:32:09;16.27;;;7.90;;
76256;SDS011;65074;50.436;8.672;2023-02-21T10:34:34;18.95;;;9.00;;
76256;SDS011;65074;50.436;8.672;2023-02-21T10:37:02;16.55;;;9.18;;
76256;SDS011;65074;50.436;8.672;2023-02-21T10:39:41;20.13;;;9.45;;
76256;SDS011;65074;50.436;8.672;2023-02-21T10:42:16;18.15;;;9.43;;
76256;SDS011;65074;50.436;8.672;2023-02-21T10:44:54;15.35;;;8.75;;
76256;SDS011;65074;50.436;8.672;2023-02-21T10:47:22;14.50;;;7.63;;
76256;SDS011;65074;50.436;8.672;2023-02-21T10:50:06;17.42;;;8.25;;
76256;SDS011;65074;50.436;8.672;2023-02-21T10:52:48;16.13;;;7.93;;
76256;SDS011;65074;50.436;8.672;2023-02-21T10:55:16;13.25;;;6.95;;
76256;SDS011;65074;50.436;8.672;2023-02-21T10:57:46;17.55;;;8.25;;
76256;SDS011;65074;50.436;8.672;2023-02-21T11:00:31;14.27;;;7.70;;
76256;SDS011;65074;50.436;8.672;2023-02-21T11:03:04;17.40;;;9.38;;
76256;SDS011;65074;50.436;8.672;2023-02-21T11:05:36;15.73;;;8.48;;
76256;SDS011;65074;50.436;8.672;2023-02-21T11:08:06;15.95;;;8.00;;
76256;SDS011;65074;50.436;8.672;2023-02-21T11:10:38;15.18;;;7.97;;
76256;SDS011;65074;50.436;8.672;2023-02-21T11:13:14;14.52;;;7.65;;
76256;SDS011;65074;50.436;8.672;2023-02-21T11:15:42;17.35;;;7.75;;
76256;SDS011;65074;50.436;8.672;2023-02-21T11:20:39;16.20;;;7.85;;
76256;SDS011;65074;50.436;8.672;2023-02-21T11:23:16;15.98;;;7.78;;
76256;SDS011;65074;50.436;8.672;2023-02-21T11:26:06;17.05;;;7.40;;
76256;SDS011;65074;50.436;8.672;2023-02-21T11:28:37;18.52;;;7.90;;
76256;SDS011;65074;50.436;8.672;2023-02-21T11:34:00;16.42;;;7.18;;
76256;SDS011;65074;50.436;8.672;2023-02-21T11:36:29;13.02;;;6.75;;
76256;SDS011;65074;50.436;8.672;2023-02-21T11:52:30;17.77;;;8.88;;
76256;SDS011;65074;50.436;8.672;2023-02-21T11:55:00;16.77;;;7.85;;
76256;SDS011;65074;50.436;8.672;2023-02-21T12:00:50;18.55;;;9.30;;
76256;SDS011;65074;50.436;8.672;2023-02-21T12:06:16;14.85;;;8.15;;
76256;SDS011;65074;50.436;8.672;2023-02-21T12:09:41;17.35;;;8.40;;
76256;SDS011;65074;50.436;8.672;2023-02-21T12:15:17;13.63;;;8.13;;
76256;SDS011;65074;50.436;8.672;2023-02-21T12:17:50;13.52;;;7.63;;
76256;SDS011;65074;50.436;8.672;2023-02-21T12:20:40;12.27;;;7.70;;
76256;SDS011;65074;50.436;8.672;2023-02-21T12:23:27;13.10;;;7.13;;
76256;SDS011;65074;50.436;8.672;2023-02-21T12:25:59;14.43;;;8.50;;
76256;SDS011;65074;50.436;8.672;2023-02-21T12:29:37;15.05;;;8.18;;
76256;SDS011;65074;50.436;8.672;2023-02-21T12:36:57;13.75;;;7.75;;
76256;SDS011;65074;50.436;8.672;2023-02-21T12:42:26;13.00;;;7.60;;
76256;SDS011;65074;50.436;8.672;2023-02-21T12:45:04;12.45;;;7.10;;
76256;SDS011;65074;50.436;8.672;2023-02-21T12:50:31;12.50;;;7.80;;
76256;SDS011;65074;50.436;8.672;2023-02-21T12:53:11;11.30;;;7.05;;
76256;SDS011;65074;50.436;8.672;2023-02-21T12:55:47;12.27;;;6.38;;
76256;SDS011;65074;50.436;8.672;2023-02-21T12:58:21;13.38;;;7.25;;
76256;SDS011;65074;50.436;8.672;2023-02-21T13:06:48;10.50;;;6.32;;
76256;SDS011;65074;50.436;8.672;2023-02-21T13:15:18;10.60;;;6.50;;
76256;SDS011;65074;50.436;8.672;2023-02-21T13:18:29;11.48;;;7.20;;
76256;SDS011;65074;50.436;8.672;2023-02-21T13:20:41;11.15;;;6.65;;
76256;SDS011;65074;50.436;8.672;2023-02-21T13:26:31;10.95;;;6.68;;
76256;SDS011;65074;50.436;8.672;2023-02-21T13:29:00;14.10;;;7.05;;
76256;SDS011;65074;50.436;8.672;2023-02-21T13:31:32;9.18;;;6.00;;
76256;SDS011;65074;50.436;8.672;2023-02-21T13:34:07;11.88;;;6.57;;
76256;SDS011;65074;50.436;8.672;2023-02-21T13:39:09;10.48;;;6.53;;
76256;SDS011;65074;50.436;8.672;2023-02-21T13:41:43;9.32;;;6.38;;
76256;SDS011;65074;50.436;8.672;2023-02-21T13:44:33;9.85;;;6.50;;
76256;SDS011;65074;50.436;8.672;2023-02-21T13:47:11;9.60;;;6.18;;
76256;SDS011;65074;50.436;8.672;2023-02-21T13:52:26;11.15;;;5.82;;
76256;SDS011;65074;50.436;8.672;2023-02-21T13:57:44;10.45;;;5.85;;
76256;SDS011;65074;50.436;8.672;2023-02-21T14:13:49;8.70;;;5.78;;
76256;SDS011;65074;50.436;8.672;2023-02-21T14:26:52;5.85;;;3.72;;
76256;SDS011;65074;50.436;8.672;2023-02-21T14:36:56;8.97;;;4.67;;
76256;SDS011;65074;50.436;8.672;2023-02-21T14:39:33;8.00;;;4.90;;
76256;SDS011;65074;50.436;8.672;2023-02-21T14:44:56;6.63;;;3.63;;
76256;SDS011;65074;50.436;8.672;2023-02-21T14:55:58;7.60;;;3.60;;
76256;SDS011;65074;50.436;8.672;2023-02-21T14:58:43;8.32;;;4.07;;
76256;SDS011;65074;50.436;8.672;2023-02-21T15:07:04;10.50;;;5.72;;
76256;SDS011;65074;50.436;8.672;2023-02-21T15:09:36;24.92;;;13.68;;
76256;SDS011;65074;50.436;8.672;2023-02-21T15:12:04;13.10;;;6.93;;
76256;SDS011;65074;50.436;8.672;2023-02-21T15:14:45;15.80;;;8.50;;
76256;SDS011;65074;50.436;8.672;2023-02-21T15:17:20;27.10;;;12.82;;
76256;SDS011;65074;50.436;8.672;2023-02-21T15:19:59;10.30;;;5.80;;
76256;SDS011;65074;50.436;8.672;2023-02-21T15:22:29;9.90;;;4.78;;
76256;SDS011;65074;50.436;8.672;2023-02-21T15:24:59;12.93;;;6.55;;
76256;SDS011;65074;50.436;8.672;2023-02-21T15:27:36;8.65;;;5.53;;
76256;SDS011;65074;50.436;8.672;2023-02-21T15:30:23;7.80;;;4.50;;
76256;SDS011;65074;50.436;8.672;2023-02-21T15:35:59;6.65;;;3.50;;
76256;SDS011;65074;50.436;8.672;2023-02-21T15:38:36;6.07;;;3.53;;
76256;SDS011;65074;50.436;8.672;2023-02-21T15:41:43;6.43;;;4.47;;
76256;SDS011;65074;50.436;8.672;2023-02-21T15:44:14;7.97;;;4.07;;
76256;SDS011;65074;50.436;8.672;2023-02-21T15:47:02;7.55;;;4.05;;
76256;SDS011;65074;50.436;8.672;2023-02-21T15:49:27;8.35;;;4.80;;
76256;SDS011;65074;50.436;8.672;2023-02-21T15:51:56;8.70;;;5.93;;
76256;SDS011;65074;50.436;8.672;2023-02-21T15:54:24;11.13;;;5.45;;
76256;SDS011;65074;50.436;8.672;2023-02-21T15:59:37;8.98;;;4.57;;
76256;SDS011;65074;50.436;8.672;2023-02-21T16:02:13;12.45;;;5.07;;
76256;SDS011;65074;50.436;8.672;2023-02-21T16:04:45;8.27;;;4.35;;
76256;SDS011;65074;50.436;8.672;2023-02-21T16:07:16;8.80;;;4.68;;
76256;SDS011;65074;50.436;8.672;2023-02-21T16:09:45;10.75;;;4.93;;
76256;SDS011;65074;50.436;8.672;2023-02-21T16:17:21;10.20;;;4.63;;
76256;SDS011;65074;50.436;8.672;2023-02-21T16:19:52;7.18;;;3.80;;
76256;SDS011;65074;50.436;8.672;2023-02-21T16:22:33;7.55;;;4.05;;
76256;SDS011;65074;50.436;8.672;2023-02-21T16:25:05;14.30;;;4.68;;
76256;SDS011;65074;50.436;8.672;2023-02-21T16:27:55;8.20;;;4.50;;
76256;SDS011;65074;50.436;8.672;2023-02-21T16:30:29;6.47;;;3.63;;
76256;SDS011;65074;50.436;8.672;2023-02-21T16:32:59;7.95;;;3.72;;
76256;SDS011;65074;50.436;8.672;2023-02-21T16:35:26;9.02;;;4.43;;
76256;SDS011;65074;50.436;8.672;2023-02-21T16:37:53;10.10;;;4.75;;
76256;SDS011;65074;50.436;8.672;2023-02-21T16:40:23;8.05;;;3.45;;
76256;SDS011;65074;50.436;8.672;2023-02-21T16:42:51;8.95;;;4.60;;
76256;SDS011;65074;50.436;8.672;2023-02-21T16:45:17;10.13;;;4.38;;
76256;SDS011;65074;50.436;8.672;2023-02-21T16:47:43;9.50;;;5.32;;
76256;SDS011;65074;50.436;8.672;2023-02-21T16:50:20;10.43;;;4.13;;
76256;SDS011;65074;50.436;8.672;2023-02-21T16:52:51;9.23;;;3.92;;
76256;SDS011;65074;50.436;8.672;2023-02-21T16:55:16;6.43;;;3.50;;
76256;SDS011;65074;50.436;8.672;2023-02-21T16:57:49;9.75;;;4.25;;
76256;SDS011;65074;50.436;8.672;2023-02-21T17:00:18;6.18;;;3.85;;
76256;SDS011;65074;50.436;8.672;2023-02-21T17:02:45;8.52;;;4.28;;
76256;SDS011;65074;50.436;8.672;2023-02-21T17:05:15;8.52;;;4.45;;
76256;SDS011;65074;50.436;8.672;2023-02-21T17:07:40;8.63;;;4.07;;
76256;SDS011;65074;50.436;8.672;2023-02-21T17:10:06;8.55;;;5.05;;
76256;SDS011;65074;50.436;8.672;2023-02-21T17:12:32;9.80;;;5.20;;
76256;SDS011;65074;50.436;8.672;2023-02-21T17:14:57;9.95;;;5.38;;
76256;SDS011;65074;50.436;8.672;2023-02-21T17:17:22;12.65;;;5.35;;
76256;SDS011;65074;50.436;8.672;2023-02-21T17:19:48;10.75;;;4.95;;
76256;SDS011;65074;50.436;8.672;2023-02-21T17:22:13;14.77;;;6.30;;
76256;SDS011;65074;50.436;8.672;2023-02-21T17:24:39;15.88;;;7.53;;
76256;SDS011;65074;50.436;8.672;2023-02-21T17:27:06;10.43;;;5.85;;
76256;SDS011;65074;50.436;8.672;2023-02-21T17:29:31;9.43;;;5.28;;
76256;SDS011;65074;50.436;8.672;2023-02-21T17:31:56;14.77;;;5.97;;
76256;SDS011;65074;50.436;8.672;2023-02-21T17:34:22;13.20;;;5.72;;
76256;SDS011;65074;50.436;8.672;2023-02-21T17:36:48;10.73;;;5.47;;
76256;SDS011;65074;50.436;8.672;2023-02-21T17:39:18;9.52;;;4.63;;
76256;SDS011;65074;50.436;8.672;2023-02-21T17:41:45;6.68;;;4.05;;
76256;SDS011;65074;50.436;8.672;2023-02-21T17:44:13;8.93;;;4.30;;
76256;SDS011;65074;50.436;8.672;2023-02-21T17:46:44;9.38;;;4.60;;
76256;SDS011;65074;50.436;8.672;2023-02-21T17:49:17;9.30;;;4.68;;
76256;SDS011;65074;50.436;8.672;2023-02-21T17:51:44;7.72;;;4.43;;